createdAt,value
2017-12-08T00:01:25.064Z,99393.14
2017-12-08T00:03:53.313Z,99388.58
2017-12-08T00:06:20.800Z,99391.06
2017-12-08T00:08:49.908Z,99394.02
2017-12-08T00:11:17.383Z,99390.70
2017-12-08T00:13:44.936Z,99392.70
2017-12-08T00:16:12.448Z,99392.75
2017-12-08T00:18:39.929Z,99391.41
2017-12-08T00:21:09.121Z,99406.66
2017-12-08T00:23:36.615Z,99412.63
2017-12-08T00:26:04.254Z,99405.45
2017-12-08T00:28:32.869Z,99420.23
2017-12-08T00:31:00.376Z,99413.02
2017-12-08T00:33:27.877Z,99410.84
2017-12-08T00:35:55.350Z,99403.64
2017-12-08T00:38:23.101Z,99399.37
2017-12-08T00:40:50.584Z,99403.15
2017-12-08T00:43:18.058Z,99400.63
2017-12-08T00:45:45.545Z,99395.14
2017-12-08T00:48:13.039Z,99401.06
2017-12-08T00:50:40.515Z,99398.90
2017-12-08T00:53:08.007Z,99403.60
2017-12-08T00:55:35.494Z,99410.80
2017-12-08T00:58:02.992Z,99413.41
2017-12-08T01:00:30.459Z,99413.03
2017-12-08T01:02:57.941Z,99415.55
2017-12-08T01:05:25.435Z,99425.80
2017-12-08T01:07:52.894Z,99422.03
2017-12-08T01:10:20.380Z,99428.72
2017-12-08T01:12:48.793Z,99424.96
2017-12-08T01:15:16.280Z,99432.49
2017-12-08T01:17:43.752Z,99431.55
2017-12-08T01:20:11.225Z,99431.51
2017-12-08T01:22:38.730Z,99440.44
2017-12-08T01:25:06.210Z,99437.48
2017-12-08T01:27:33.670Z,99432.02
2017-12-08T01:30:01.151Z,99429.91
2017-12-08T01:32:28.689Z,99430.37
2017-12-08T01:34:56.181Z,99439.70
2017-12-08T01:37:23.748Z,99428.25
2017-12-08T01:39:51.262Z,99429.97
2017-12-08T01:42:18.735Z,99424.83
2017-12-08T01:44:46.232Z,99435.43
2017-12-08T01:47:13.704Z,99440.95
2017-12-08T01:49:41.196Z,99435.53
2017-12-08T01:52:08.671Z,99432.52
2017-12-08T01:54:36.141Z,99440.12
2017-12-08T01:57:03.790Z,99437.97
2017-12-08T01:59:31.277Z,99442.64
2017-12-08T02:01:58.779Z,99434.20
2017-12-08T02:04:26.307Z,99427.75
2017-12-08T02:06:53.795Z,99430.34
2017-12-08T02:09:21.290Z,99424.91
2017-12-08T02:11:48.758Z,99433.73
2017-12-08T02:14:16.241Z,99434.12
2017-12-08T02:16:43.755Z,99436.78
2017-12-08T02:19:11.229Z,99436.74
2017-12-08T02:21:38.940Z,99436.00
2017-12-08T02:24:07.386Z,99432.92
2017-12-08T02:26:34.883Z,99430.94
2017-12-08T02:29:02.358Z,99449.48
2017-12-08T02:31:29.838Z,99447.77
2017-12-08T02:33:57.324Z,99440.98
2017-12-08T02:36:24.817Z,99445.13
2017-12-08T02:38:52.299Z,99431.66
2017-12-08T02:41:19.780Z,99430.73
2017-12-08T02:43:47.249Z,99425.25
2017-12-08T02:46:14.734Z,99433.78
2017-12-08T02:48:42.246Z,99429.52
2017-12-08T02:51:09.721Z,99430.75
2017-12-08T02:53:37.186Z,99433.33
2017-12-08T02:56:05.941Z,99438.38
2017-12-08T02:58:33.417Z,99448.84
2017-12-08T03:01:00.890Z,99446.79
2017-12-08T03:03:28.365Z,99442.92
2017-12-08T03:05:55.850Z,99444.61
2017-12-08T03:08:23.321Z,99449.30
2017-12-08T03:10:50.842Z,99452.22
2017-12-08T03:13:18.337Z,99453.97
2017-12-08T03:15:45.811Z,99459.88
2017-12-08T03:18:13.332Z,99461.59
2017-12-08T03:20:40.852Z,99454.86
2017-12-08T03:23:08.339Z,99457.47
2017-12-08T03:25:35.833Z,99449.44
2017-12-08T03:28:03.360Z,99454.64
2017-12-08T03:30:30.871Z,99456.78
2017-12-08T03:32:58.359Z,99463.63
2017-12-08T03:35:26.611Z,99466.57
2017-12-08T03:37:54.101Z,99456.44
2017-12-08T03:40:21.608Z,99464.02
2017-12-08T03:42:49.082Z,99462.31
2017-12-08T03:45:16.573Z,99457.25
2017-12-08T03:47:44.950Z,99461.45
2017-12-08T03:50:12.429Z,99460.61
2017-12-08T03:52:39.932Z,99458.99
2017-12-08T03:55:07.409Z,99466.20
2017-12-08T03:57:34.865Z,99467.99
2017-12-08T04:00:02.365Z,99468.95
2017-12-08T04:02:29.864Z,99464.77
2017-12-08T04:04:57.360Z,99471.99
2017-12-08T04:07:24.868Z,99469.02
2017-12-08T04:09:52.333Z,99470.72
2017-12-08T04:12:19.833Z,99473.80
2017-12-08T04:14:47.320Z,99474.20
2017-12-08T04:17:14.806Z,99471.36
2017-12-08T04:19:42.313Z,99468.02
2017-12-08T04:22:10.512Z,99469.41
2017-12-08T04:24:37.992Z,99467.23
2017-12-08T04:27:05.463Z,99467.61
2017-12-08T04:29:32.976Z,99473.56
2017-12-08T04:32:00.433Z,99473.97
2017-12-08T04:34:28.482Z,99468.42
2017-12-08T04:36:55.954Z,99473.48
2017-12-08T04:39:23.433Z,99466.77
2017-12-08T04:41:50.924Z,99474.36
2017-12-08T04:44:18.396Z,99472.20
2017-12-08T04:46:45.872Z,99475.16
2017-12-08T04:49:13.392Z,99471.38
2017-12-08T04:51:40.872Z,99471.42
2017-12-08T04:54:08.335Z,99478.66
2017-12-08T04:56:35.830Z,99478.72
2017-12-08T04:59:04.231Z,99474.05
2017-12-08T05:01:31.712Z,99490.98
2017-12-08T05:03:59.186Z,99482.97
2017-12-08T05:06:26.687Z,99479.19
2017-12-08T05:08:54.188Z,99485.94
2017-12-08T05:11:21.684Z,99484.30
2017-12-08T05:13:49.388Z,99489.70
2017-12-08T05:16:16.861Z,99488.43
2017-12-08T05:18:44.333Z,99482.45
2017-12-08T05:21:13.997Z,99484.14
2017-12-08T05:23:41.560Z,99471.87
2017-12-08T05:26:09.094Z,99474.90
2017-12-08T05:28:36.561Z,99470.70
2017-12-08T05:31:04.056Z,99475.81
2017-12-08T05:33:31.585Z,99482.97
2017-12-08T05:35:59.067Z,99486.41
2017-12-08T05:38:26.573Z,99488.47
2017-12-08T05:40:54.054Z,99492.36
2017-12-08T05:43:21.573Z,99483.00
2017-12-08T05:45:49.049Z,99484.23
2017-12-08T05:48:16.548Z,99482.59
2017-12-08T05:50:44.031Z,99471.54
2017-12-08T05:53:11.518Z,99479.30
2017-12-08T05:55:39.086Z,99477.53
2017-12-08T05:58:06.566Z,99477.03
2017-12-08T06:00:34.078Z,99474.27
2017-12-08T06:03:01.584Z,99469.23
2017-12-08T06:05:29.076Z,99469.71
2017-12-08T06:07:56.541Z,99474.38
2017-12-08T06:10:24.014Z,99487.98
2017-12-08T06:12:51.496Z,99477.82
2017-12-08T06:15:19.002Z,99480.80
2017-12-08T06:17:46.526Z,99476.58
2017-12-08T06:20:14.036Z,99481.73
2017-12-08T06:22:41.528Z,99474.13
2017-12-08T06:25:09.071Z,99464.43
2017-12-08T06:27:36.584Z,99466.91
2017-12-08T06:30:04.081Z,99475.11
2017-12-08T06:32:31.570Z,99464.48
2017-12-08T06:34:59.032Z,99467.06
2017-12-08T06:37:26.513Z,99463.27
2017-12-08T06:39:54.017Z,99461.52
2017-12-08T06:42:21.512Z,99461.10
2017-12-08T06:44:49.009Z,99471.26
2017-12-08T06:47:16.486Z,99476.80
2017-12-08T06:49:43.989Z,99477.14
2017-12-08T06:52:11.466Z,99476.70
2017-12-08T06:54:38.964Z,99475.86
2017-12-08T06:57:06.442Z,99468.22
2017-12-08T06:59:33.914Z,99472.86
2017-12-08T07:02:02.019Z,99480.45
2017-12-08T07:04:29.510Z,99469.04
2017-12-08T07:06:56.990Z,99461.88
2017-12-08T07:09:24.506Z,99468.67
2017-12-08T07:11:51.980Z,99466.59
2017-12-08T07:14:19.468Z,99464.48
2017-12-08T07:16:46.971Z,99472.48
2017-12-08T07:19:14.448Z,99515.18
2017-12-08T07:21:41.935Z,99515.44
2017-12-08T07:24:10.160Z,99528.56
2017-12-08T07:26:37.689Z,99527.31
2017-12-08T07:29:05.154Z,99514.27
2017-12-08T07:31:32.651Z,99518.05
2017-12-08T07:34:00.133Z,99511.28
2017-12-08T07:36:27.622Z,99508.34
2017-12-08T07:38:55.088Z,99506.27
2017-12-08T07:41:22.614Z,99505.41
2017-12-08T07:43:51.053Z,99512.11
2017-12-08T07:46:19.685Z,99517.27
2017-12-08T07:48:47.161Z,99524.05
2017-12-08T07:51:14.638Z,99527.00
2017-12-08T07:53:42.104Z,99526.20
2017-12-08T07:56:09.594Z,99524.48
2017-12-08T07:58:37.073Z,99519.02
2017-12-08T08:01:04.522Z,99525.37
2017-12-08T08:03:35.046Z,99524.08
2017-12-08T08:06:05.422Z,99532.09
2017-12-08T08:08:34.307Z,99528.29
2017-12-08T08:11:01.809Z,99535.03
2017-12-08T08:13:29.386Z,99544.71
2017-12-08T08:15:57.652Z,99546.39
2017-12-08T08:18:25.143Z,99552.74
2017-12-08T08:20:53.981Z,99561.99
2017-12-08T08:23:21.452Z,99557.34
2017-12-08T08:25:49.671Z,99563.66
2017-12-08T08:28:17.156Z,99560.27
2017-12-08T08:30:44.615Z,99558.11
2017-12-08T08:33:12.730Z,99554.70
2017-12-08T08:35:40.201Z,99555.08
2017-12-08T08:38:07.686Z,99549.95
2017-12-08T08:40:35.189Z,99547.67
2017-12-08T08:43:03.989Z,99551.69
2017-12-08T08:45:31.807Z,99559.10
2017-12-08T08:48:01.504Z,99546.92
2017-12-08T08:50:30.655Z,99552.25
2017-12-08T08:52:58.422Z,99559.30
2017-12-08T08:55:25.884Z,99566.03
2017-12-08T08:57:53.367Z,99571.55
2017-12-08T09:00:21.976Z,99575.14
2017-12-08T09:02:49.456Z,99581.41
2017-12-08T09:05:16.965Z,99581.20
2017-12-08T09:07:45.153Z,99576.36
2017-12-08T09:10:12.620Z,99584.49
2017-12-08T09:12:40.115Z,99579.30
2017-12-08T09:15:07.601Z,99584.38
2017-12-08T09:17:35.183Z,99583.34
2017-12-08T09:20:02.682Z,99587.27
2017-12-08T09:22:30.156Z,99592.02
2017-12-08T09:24:57.654Z,99579.52
2017-12-08T09:27:25.118Z,99580.13
2017-12-08T09:29:52.585Z,99587.52
2017-12-08T09:32:20.079Z,99582.90
2017-12-08T09:34:47.573Z,99578.42
2017-12-08T09:37:15.054Z,99588.97
2017-12-08T09:39:42.522Z,99591.22
2017-12-08T09:42:10.007Z,99587.09
2017-12-08T09:44:37.461Z,99590.28
2017-12-08T09:47:05.793Z,99587.44
2017-12-08T09:49:33.731Z,99587.33
2017-12-08T09:52:01.221Z,99579.65
2017-12-08T09:54:28.709Z,99579.34
2017-12-08T09:56:56.386Z,99584.69
2017-12-08T09:59:23.872Z,99581.85
2017-12-08T10:01:51.333Z,99585.38
2017-12-08T10:04:18.812Z,99588.52
2017-12-08T10:06:46.296Z,99589.78
2017-12-08T10:09:13.798Z,99582.52
2017-12-08T10:11:41.293Z,99583.02
2017-12-08T10:14:08.777Z,99577.48
2017-12-08T10:16:36.250Z,99568.69
2017-12-08T10:19:04.857Z,99578.55
2017-12-08T10:21:33.295Z,99573.34
2017-12-08T10:24:00.827Z,99568.25
2017-12-08T10:26:28.301Z,99564.42
2017-12-08T10:28:55.799Z,99563.55
2017-12-08T10:31:24.087Z,99557.22
2017-12-08T10:33:51.595Z,99553.45
2017-12-08T10:36:19.105Z,99553.44
2017-12-08T10:38:46.586Z,99557.58
2017-12-08T10:41:14.072Z,99549.67
2017-12-08T10:43:41.538Z,99552.75
2017-12-08T10:46:09.041Z,99559.06
2017-12-08T10:48:36.584Z,99558.16
2017-12-08T10:51:04.037Z,99546.84
2017-12-08T10:53:31.529Z,99549.73
2017-12-08T10:55:59.016Z,99550.95
2017-12-08T10:58:27.373Z,99550.61
2017-12-08T11:00:54.854Z,99540.06
2017-12-08T11:03:22.325Z,99543.37
2017-12-08T11:05:49.782Z,99534.90
2017-12-08T11:08:17.992Z,99537.81
2017-12-08T11:10:45.509Z,99536.41
2017-12-08T11:13:12.971Z,99531.44
2017-12-08T11:15:40.468Z,99539.82
2017-12-08T11:18:07.969Z,99527.09
2017-12-08T11:20:35.447Z,99533.92
2017-12-08T11:23:02.934Z,99521.28
2017-12-08T11:25:30.422Z,99519.55
2017-12-08T11:27:57.924Z,99510.36
2017-12-08T11:30:25.438Z,99511.52
2017-12-08T11:32:52.922Z,99511.58
2017-12-08T11:35:20.427Z,99508.01
2017-12-08T11:37:47.883Z,99502.83
2017-12-08T11:40:15.361Z,99495.48
2017-12-08T11:42:42.844Z,99497.03
2017-12-08T11:45:10.315Z,99488.05
2017-12-08T11:47:37.813Z,99490.42
2017-12-08T11:50:05.318Z,99481.65
2017-12-08T11:52:32.826Z,99487.14
2017-12-08T11:55:00.398Z,99484.69
2017-12-08T11:57:27.872Z,99486.41
2017-12-08T11:59:55.362Z,99500.89
2017-12-08T12:02:22.896Z,99507.17
2017-12-08T12:04:50.422Z,99499.38
2017-12-08T12:07:17.947Z,99503.97
2017-12-08T12:09:45.428Z,99505.78
2017-12-08T12:12:12.917Z,99517.20
2017-12-08T12:14:40.421Z,99517.29
2017-12-08T12:17:07.902Z,99511.91
2017-12-08T12:19:35.406Z,99519.55
2017-12-08T12:22:02.880Z,99525.62
2017-12-08T12:24:30.394Z,99536.71
2017-12-08T12:26:57.904Z,99521.12
2017-12-08T12:29:25.375Z,99519.91
2017-12-08T12:31:52.880Z,99518.63
2017-12-08T12:34:20.355Z,99514.39
2017-12-08T12:36:47.823Z,99510.61
2017-12-08T12:39:15.309Z,99516.50
2017-12-08T12:41:42.804Z,99519.43
2017-12-08T12:44:10.289Z,99516.08
2017-12-08T12:46:37.789Z,99518.59
2017-12-08T12:49:06.130Z,99508.95
2017-12-08T12:51:33.756Z,99511.03
2017-12-08T12:54:01.247Z,99507.19
2017-12-08T12:56:28.730Z,99507.28
2017-12-08T12:58:56.230Z,99501.34
2017-12-08T13:01:24.853Z,99502.20
2017-12-08T13:03:52.314Z,99504.73
2017-12-08T13:06:19.813Z,99505.63
2017-12-08T13:08:47.300Z,99508.98
2017-12-08T13:11:14.777Z,99495.09
2017-12-08T13:13:42.242Z,99496.78
2017-12-08T13:16:10.245Z,99501.85
2017-12-08T13:18:37.772Z,99489.19
2017-12-08T13:21:05.271Z,99493.41
2017-12-08T13:23:32.777Z,99488.77
2017-12-08T13:26:00.242Z,99486.67
2017-12-08T13:28:27.716Z,99484.98
2017-12-08T13:30:55.185Z,99488.34
2017-12-08T13:33:22.666Z,99489.57
2017-12-08T13:35:50.156Z,99491.28
2017-12-08T13:38:17.665Z,99485.38
2017-12-08T13:40:45.134Z,99489.16
2017-12-08T13:43:12.641Z,99484.09
2017-12-08T13:45:40.121Z,99488.73
2017-12-08T13:48:07.598Z,99489.57
2017-12-08T13:50:35.078Z,99495.47
2017-12-08T13:53:02.569Z,99487.03
2017-12-08T13:55:41.857Z,99496.73
2017-12-08T13:58:09.388Z,99497.55
2017-12-08T14:00:36.850Z,99499.27
2017-12-08T14:03:04.442Z,99502.64
2017-12-08T14:05:31.945Z,99495.48
2017-12-08T14:07:59.444Z,99496.28
2017-12-08T14:10:27.122Z,99497.56
2017-12-08T14:12:56.475Z,99499.69
2017-12-08T14:15:24.107Z,99496.73
2017-12-08T14:17:52.539Z,99495.45
2017-12-08T14:20:20.003Z,99497.13
2017-12-08T14:22:47.478Z,99497.55
2017-12-08T14:25:14.998Z,99502.17
2017-12-08T14:27:42.468Z,99498.38
2017-12-08T14:30:09.978Z,99503.03
2017-12-08T14:32:37.470Z,99500.50
2017-12-08T14:35:04.986Z,99503.88
2017-12-08T14:37:32.525Z,99503.45
2017-12-08T14:40:01.929Z,99501.31
2017-12-08T14:42:29.438Z,99502.63
2017-12-08T14:44:56.910Z,99501.77
2017-12-08T14:47:24.953Z,99519.02
2017-12-08T14:49:52.492Z,99519.48
2017-12-08T14:52:20.018Z,99519.08
2017-12-08T14:54:47.514Z,99523.27
2017-12-08T14:57:14.997Z,99520.75
2017-12-08T14:59:42.490Z,99527.06
2017-12-08T15:02:09.977Z,99538.03
2017-12-08T15:04:37.497Z,99537.22
2017-12-08T15:07:04.970Z,99542.67
2017-12-08T15:09:32.525Z,99543.52
2017-12-08T15:12:00.014Z,99557.45
2017-12-08T15:14:27.565Z,99568.39
2017-12-08T15:16:55.171Z,99559.52
2017-12-08T15:19:22.673Z,99578.48
2017-12-08T15:21:50.167Z,99586.44
2017-12-08T15:24:17.674Z,99589.83
2017-12-08T15:26:45.237Z,99586.44
2017-12-08T15:29:12.730Z,99589.34
2017-12-08T15:31:40.239Z,99594.79
2017-12-08T15:34:07.734Z,99608.25
2017-12-08T15:36:35.241Z,99606.09
2017-12-08T15:39:02.776Z,99616.23
2017-12-08T15:41:30.296Z,99614.11
2017-12-08T15:43:57.763Z,99620.85
2017-12-08T15:46:25.314Z,99620.02
2017-12-08T15:48:52.816Z,99613.67
2017-12-08T15:51:20.295Z,99621.27
2017-12-08T15:53:47.816Z,99632.25
2017-12-08T15:56:15.342Z,99628.89
2017-12-08T15:58:42.828Z,99636.45
2017-12-08T16:01:10.338Z,99641.48
2017-12-08T16:03:37.833Z,99643.98
2017-12-08T16:06:05.332Z,99643.03
2017-12-08T16:08:32.828Z,99653.89
2017-12-08T16:11:00.314Z,99663.47
2017-12-08T16:13:27.805Z,99661.35
2017-12-08T16:15:55.285Z,99663.02
2017-12-08T16:18:22.788Z,99642.42
2017-12-08T16:20:50.278Z,99642.41
2017-12-08T16:23:17.772Z,99639.08
2017-12-08T16:25:45.240Z,99649.55
2017-12-08T16:28:12.885Z,99644.95
2017-12-08T16:30:40.363Z,99631.93
2017-12-08T16:33:07.889Z,99632.39
2017-12-08T16:35:35.368Z,99629.84
2017-12-08T16:38:02.878Z,99638.67
2017-12-08T16:40:30.462Z,99645.02
2017-12-08T16:42:57.972Z,99650.91
2017-12-08T16:45:25.482Z,99652.58
2017-12-08T16:47:52.972Z,99654.69
2017-12-08T16:50:20.500Z,99651.80
2017-12-08T16:52:48.006Z,99655.59
2017-12-08T16:55:15.509Z,99653.97
2017-12-08T16:57:43.024Z,99667.45
2017-12-08T17:00:10.510Z,99664.95
2017-12-08T17:02:38.055Z,99669.56
2017-12-08T17:05:05.565Z,99667.91
2017-12-08T17:07:33.045Z,99669.60
2017-12-08T17:10:00.577Z,99676.31
2017-12-08T17:12:28.113Z,99668.75
2017-12-08T17:14:55.606Z,99683.05
2017-12-08T17:17:23.074Z,99675.88
2017-12-08T17:19:50.565Z,99680.50
2017-12-08T17:22:18.042Z,99680.09
2017-12-08T17:24:45.545Z,99678.45
2017-12-08T17:27:13.040Z,99681.78
2017-12-08T17:29:40.521Z,99685.16
2017-12-08T17:32:07.998Z,99688.08
2017-12-08T17:34:35.483Z,99690.66
2017-12-08T17:37:03.005Z,99693.16
2017-12-08T17:39:30.497Z,99691.88
2017-12-08T17:41:58.773Z,99692.71
2017-12-08T17:44:26.293Z,99688.09
2017-12-08T17:46:53.792Z,99687.22
2017-12-08T17:49:21.284Z,99687.65
2017-12-08T17:51:48.788Z,99689.75
2017-12-08T17:54:16.281Z,99688.05
2017-12-08T17:56:43.767Z,99686.77
2017-12-08T17:59:12.128Z,99688.45
2017-12-08T18:01:39.608Z,99682.58
2017-12-08T18:04:07.104Z,99682.98
2017-12-08T18:06:34.585Z,99689.28
2017-12-08T18:09:02.054Z,99697.67
2017-12-08T18:11:29.540Z,99699.76
2017-12-08T18:13:57.033Z,99698.91
2017-12-08T18:16:24.530Z,99698.52
2017-12-08T18:18:52.044Z,99707.33
2017-12-08T18:21:19.579Z,99711.08
2017-12-08T18:23:47.113Z,99708.11
2017-12-08T18:26:14.642Z,99711.95
2017-12-08T18:28:42.143Z,99715.33
2017-12-08T18:31:09.679Z,99726.61
2017-12-08T18:33:37.213Z,99720.74
2017-12-08T18:36:04.694Z,99726.63
2017-12-08T18:38:32.185Z,99724.13
2017-12-08T18:40:59.668Z,99721.16
2017-12-08T18:43:27.397Z,99713.99
2017-12-08T18:48:21.663Z,99721.14
2017-12-08T18:50:49.167Z,99719.45
2017-12-08T18:53:17.487Z,99727.88
2017-12-08T18:55:44.995Z,99730.38
2017-12-08T18:58:12.461Z,99728.71
2017-12-08T19:00:39.942Z,99730.80
2017-12-08T19:03:07.429Z,99739.69
2017-12-08T19:05:34.914Z,99735.85
2017-12-08T19:08:02.376Z,99741.31
2017-12-08T19:10:29.876Z,99742.11
2017-12-08T19:12:57.394Z,99740.86
2017-12-08T19:15:24.859Z,99746.73
2017-12-08T19:17:52.444Z,99743.35
2017-12-08T19:20:19.954Z,99748.02
2017-12-08T19:22:47.424Z,99750.09
2017-12-08T19:25:14.886Z,99753.39
2017-12-08T19:27:42.394Z,99757.16
2017-12-08T19:30:09.921Z,99761.36
2017-12-08T19:32:37.444Z,99759.20
2017-12-08T19:35:05.019Z,99754.56
2017-12-08T19:37:32.516Z,99752.41
2017-12-08T19:40:00.029Z,99752.01
2017-12-08T19:42:27.545Z,99749.39
2017-12-08T19:44:55.042Z,99752.69
2017-12-08T19:47:22.534Z,99750.20
2017-12-08T19:49:50.093Z,99746.89
2017-12-08T19:52:17.628Z,99751.47
2017-12-08T19:54:45.130Z,99758.98
2017-12-08T19:57:12.599Z,99751.03
2017-12-08T19:59:40.118Z,99743.47
2017-12-08T20:02:07.577Z,99752.25
2017-12-08T20:04:35.034Z,99748.88
2017-12-08T20:07:02.579Z,99754.33
2017-12-08T20:09:30.065Z,99756.45
2017-12-08T20:11:57.542Z,99758.57
2017-12-08T20:14:25.049Z,99755.96
2017-12-08T20:16:52.561Z,99756.78
2017-12-08T20:19:20.036Z,99757.12
2017-12-08T20:21:47.541Z,99754.27
2017-12-08T20:24:15.012Z,99754.64
2017-12-08T20:26:43.927Z,99749.65
2017-12-08T20:29:11.436Z,99748.83
2017-12-08T20:31:38.938Z,99751.31
2017-12-08T20:34:06.629Z,99757.53
2017-12-08T20:36:34.177Z,99758.36
2017-12-08T20:39:01.687Z,99756.68
2017-12-08T20:41:29.175Z,99756.63
2017-12-08T20:43:56.673Z,99751.61
2017-12-08T20:46:24.182Z,99748.23
2017-12-08T20:48:52.291Z,99744.92
2017-12-08T20:51:19.809Z,99748.27
2017-12-08T20:53:47.286Z,99739.06
2017-12-08T20:56:14.809Z,99745.73
2017-12-08T20:58:42.280Z,99744.11
2017-12-08T21:01:09.754Z,99755.82
2017-12-08T21:03:37.214Z,99747.81
2017-12-08T21:06:04.733Z,99744.11
2017-12-08T21:08:32.228Z,99735.69
2017-12-08T21:10:59.729Z,99734.84
2017-12-08T21:13:27.207Z,99740.26
2017-12-08T21:15:54.711Z,99741.91
2017-12-08T21:18:22.182Z,99749.43
2017-12-08T21:20:49.721Z,99745.77
2017-12-08T21:23:17.292Z,99744.02
2017-12-08T21:25:44.737Z,99742.87
2017-12-08T21:28:12.201Z,99742.45
2017-12-08T21:30:39.672Z,99733.59
2017-12-08T21:33:07.196Z,99734.38
2017-12-08T21:35:34.665Z,99731.05
2017-12-08T21:38:02.153Z,99733.59
2017-12-08T21:40:29.642Z,99725.61
2017-12-08T21:42:57.149Z,99722.25
2017-12-08T21:45:24.674Z,99721.42
2017-12-08T21:47:52.163Z,99715.55
2017-12-08T21:50:19.643Z,99717.64
2017-12-08T21:52:47.140Z,99711.84
2017-12-08T21:55:14.632Z,99706.36
2017-12-08T21:57:42.103Z,99700.94
2017-12-08T22:00:09.566Z,99708.41
2017-12-08T22:02:37.057Z,99707.61
2017-12-08T22:05:04.578Z,99699.65
2017-12-08T22:07:32.088Z,99695.45
2017-12-08T22:09:59.718Z,99694.29
2017-12-08T22:12:27.234Z,99696.41
2017-12-08T22:14:54.710Z,99694.30
2017-12-08T22:17:22.182Z,99696.81
2017-12-08T22:19:49.651Z,99690.13
2017-12-08T22:22:17.150Z,99688.50
2017-12-08T22:24:44.649Z,99689.41
2017-12-08T22:27:12.114Z,99684.36
2017-12-08T22:29:39.604Z,99685.68
2017-12-08T22:32:07.094Z,99687.80
2017-12-08T22:34:34.593Z,99676.50
2017-12-08T22:37:02.107Z,99668.50
2017-12-08T22:39:29.631Z,99658.87
2017-12-08T22:41:57.852Z,99660.56
2017-12-08T22:44:25.327Z,99663.14
2017-12-08T22:46:52.811Z,99662.69
2017-12-08T22:49:20.299Z,99660.61
2017-12-08T22:51:47.761Z,99661.02
2017-12-08T22:54:15.813Z,99666.91
2017-12-08T22:56:43.284Z,99668.55
2017-12-08T22:59:10.777Z,99664.70
2017-12-08T23:01:38.305Z,99667.94
2017-12-08T23:04:05.790Z,99666.59
2017-12-08T23:06:33.268Z,99665.80
2017-12-08T23:09:00.776Z,99664.90
2017-12-08T23:11:28.277Z,99667.77
2017-12-08T23:13:55.784Z,99660.22
2017-12-08T23:16:23.294Z,99657.66
2017-12-08T23:18:50.821Z,99659.34
2017-12-08T23:21:18.351Z,99655.47
2017-12-08T23:23:45.823Z,99645.88
2017-12-08T23:26:14.390Z,99643.35
2017-12-08T23:28:41.915Z,99647.52
2017-12-08T23:31:09.418Z,99649.70
2017-12-08T23:33:36.888Z,99645.50
2017-12-08T23:36:04.366Z,99638.36
2017-12-08T23:38:31.826Z,99635.87
2017-12-08T23:40:59.362Z,99630.02
2017-12-08T23:43:26.896Z,99621.55
2017-12-08T23:45:54.382Z,99624.48
2017-12-08T23:48:21.900Z,99628.72
2017-12-08T23:50:49.388Z,99630.02
2017-12-08T23:53:16.877Z,99616.13
2017-12-08T23:55:44.371Z,99617.00
2017-12-08T23:58:11.839Z,99601.84
